Terminal Aerodrome Forecast
Issued by NWS Wilmington, NC

Home | Current Version | Previous Version | Text Only | Print | Product List | Glossary On
Versions: 1 2 3 4 5 6 7 8 9 10 11 12 13 14 15
000
FTUS42 KILM 012300
TAFMYR
TAF
KMYR 012321Z 0200/0224 16004KT P6SM SKC
     FM020900 00000KT 5SM BR FEW003
     FM021400 24004KT P6SM FEW040
      AMD LTD TO CLD VIS AND WIND 0204/0211=

USA.gov is the U.S. government's official web portal to all federal, state and local government web resources and services.